Country
Station

 

Weather  for  Aeroporto Ilhéus (Ilhéus/BA)  -  Brazil    Brazil

  
26 °C (79 °F)
    
 
 

Current METAR for Aeroporto Ilhéus (Ilhéus/BA) is :

SBIL 202100Z 07007KT 9999 SCT025 26/22 Q1014

 

This is a report for Aeroporto Ilhéus (Ilhéus/BA) - Brazil.
 
The report was made 14 hours and 29 minutes ago, at 21:00 UTC .
The wind was blowing at a speed of 3.6 meters per second (8.1 miles per hour) from east/northeast (070°).
 
The temperature was 26 °C (79 °F), with a dew-point at 22 °C (72 °F).
The temperature felt like 28 °C (82 °F).
 
The atmospheric pressure was 1014 hPa (29.94 inHg).
The relative humidity was 78.7%.
 
There were scattered clouds at a height of 762 meters (2500 feet).
 
The overall visibility was greater than 10 kilometers (6.2 miles).
 

 
 
 
 

Country :   A   B   C   D   E   F   G   H   I   J   K   L   M   N   O   P   Q   R   S   T   U   V   W   Y   Z

 

Site Info  |  Disclaimer  |  Credits  |  Privacy
Contact us  |  Add to favorites
© 2013-2020 METARs - All rights reserved